Change Date:Time:

Metar of : 9/19/2017 1800UTC
Metar
OPKE 191800Z 22502KT 6000 SKC 31/26 Q1002 RH75%
OPAP BW 00000KT 4000 FU NSC 26/22 Q1002 76%
OPAS 36002KT 6000 NSC 19/00 37%
OPBDN 191800Z 02704kt V96 ca vck 30/24 Q10041 RH69%
OPBJ 18002KT 6000 NSC 22/07 38%
OPBKN 191800Z 00000KT 0500 NSC 24/13 RH51%
OPBKR 00000KT 5000 NSC 31/21 57%
OPBL 191800Z 13002KT 6000 NSC 28/21 RH64%
OPBR 00000KT 5000 NSC 31/22 60%
OPBW 00000KT 3000 FU NSC 28/22 74%
OPCK 00000KT 9999 SKC 26/20 73%
OPCL 18002KT 4000 NSC 29/07 24%
OPDBN 191800Z 00000KT 6000 NSC 26/-01 QNH 1012 RH17%
OPDG 27002KT 6000 NSC 29/22 Q1002 67%
OPDIK 00000KT 6000 SKC 28/19 Q1003 70%
OPDIR 00000KT 6000 S.K.C 17/10 62%
OPDU 191800Z 18002KT 6000 HZ NSC 33/21 RH50%
OPFA 00000KT 5000 FU NSC 28/22 Q1004 NOSIG RH 74%
OPGD 191800Z 00000KT 3000 BR NSC 28/24 Q1007 RH81%
OPGP 00000KT 8000 NSC 22/16 68%
OPGPS 23004KT 4000 SKC 15 /04 49%
OPGT 00000KT 3000 NSC 17/13 Q1011 76%
OPGW 00000KT CAVOK 26/23 84%
OPHQ 00000KT 6000 NSC 23/20 Q1004 RH 80%
OPJBD 00000KT 3500FU NSC 28/25 85%
OPJG 00000KT 5000 FU NSC 27/22 Q1002 73%
OPJI 191800Z 23004KTS 2000 FU SKC 30/27 Q 1006 RH85%
OPJM 00000KT 3000 BR NSC 27/24 84%
OPKAD 00000KT 6000 NSC 29/22 68%
OPKC 191800Z 23006KT 7000 NSC 28/25 Q1004 RH85%
OPKD 191800Z 21010KT 6000 NSC 29/25 Q1003 RH81% NOSIG
OPKL 05002KT 6000 NSC 26/20 70%
OPKLT 191800Z 00000kt 5000 NSC 8012 16/04 01/0 RH38%
OPKP 00000KT 4000 FU NSC 29/26 85%
OPKRL 00000KT 4000 FU NSC 28/22 67%
OPKS 00000KT 4000 FU NSC 29/22 68%
OPLA 15003KT 4000 FU SCT100 29/21 Q1004 A29.65 NOSIG RH 64%
OPLRK 191800Z 00000KT 6000 NSC 33/26 Q.1004 RH67%
OPMA 00000KT 6000 FU NSC 27/23 Q1005 77%
OPMB 00000KT 6000 NSC 28/25 Q1004 85%
OPME 36002KT 6000 SKC 17/08 56%
OPMF 00000KT 7000 NSC 25/17 62%
OPMIT 191800 22506KT 6000 NSC 30/26 Q1002 RH75%
OPMJ 191800Z 00000KT 6000 NSC 29/23 Q.1001 RH71% NO SIG
OPMPK 191800Z 18002KT V8000 skc 25/21 Q1006 RH76%
OPMT 00000KT 4000 FU NSC 31/21 Q1002 NOSIG RH56%
OPNH 191800Z 13006KT 5000 HZ NSC 32/23 Q1003 RH58% NOSIG
OPNK 191800Z 36006KT 8000 SKC 27/M02 Q1004 RH15%
OPNPT 00000KT 6000 SKC 32/23 61%
OPOK 00000KT 4500 NSC 30/23 Q1003 65%
OPPDN 191800Z 00000Kt 5000 28/23 Q1003 RH71%
OPPG 191800z 31006kt 6km SKC 26/06 Q1015 RH27%
OPPI 191800Z 23009KT 3000 SKC T28/27 Q1005 RH92%
OPPS 00000KT 4000 HZ SKC 28/17 Q1004 RH 51%
OPQT 13006KT 7000 NSC 18/M04 Q1018 RH.21%
OPRK 00000KT 4000 FU NSC 28/21 Q1002 67%
OPRN 05004KT 6000 NSC 27/20 Q1006.4 RH 64%
OPRRI 191800Z 00000KT 6000 HZ NSC 31/22 P1P1 9944
OPSD 00000KT 6000 NSC 13/09 Q1017 74%
OPSG 00000KT 6000 NSC 30/24 72%
OPSK 191800Z 00000KT 4000 HZ NSC 31/25 Q1002 NOSIG
OPSKT 00000KT 6000 28/26 92%
OPSS 00000KT 4000 SKC 21/15 66%
OPST 05004KT 4000 FU NSC 28/22 Q1004 NOSIG RH70%
OPSW 00000KT 6000 NSC 29/23 Q1002 71%
OPTMG 00000KT 4000 SKC 25/13 49%
OPTS 00000KT 5000 FU NSC 28/23 74%
OPTU 191800Z 00000KT 5000M SKC 31/10 Q1005 RH28%
OPZB 1918OOZ 09005KT 6000 SKC 26/15 Q1014 RH53%
PS1. TAF OPPS 191800Z 1921/2006 05010KT 3000 HZ FEW040 SCT100
QT1.TAF OPQT 191800Z 1921/2006 16010KT 6000 NSC TEMPO 2004/2006 31010KT 4000 HZ FEW100
RN1.TAF OPRN 191800Z 05006KT 4000 HZ NSC BECMG 2005/2006 25010KT 6000 FEW040
CodeW.DirSpeedVisibilityCloud ConditionTempPressureHumidityStation
OPAP00000KT4000mHaze26oC1002hp76%B-PUR A/P
OPAS36002KT6000mClear19oC37%ASTORE
OPBJ18002KT6000mClear22oC38%BUNJI
OPBKR00000KT5000mClear31oC57%Bhakkar
OPBR00000KT5000mClear31oC60%Bahawalnagar
OPBW00000KT3000mHaze28oC74%Bahawalpur
OPCK00000KT9999mClear26oC73%Chakwal
OPCL18002KT4000mClear29oC24%Chilas
OPDG27002KT6000mClear29oC1002hp67%D-G-KHAN
OPFA00000KT5000mHaze28oC1004hp74%Faisalabad
OPGD00000KT3000mMist28oC1007hp81%Gawadar
OPGP00000KT8000mClear22oC68%GARHI DOPATTA
OPGT00000KT3000mClear17oC1011hp76%Gilgit
OPGW00000KTClear26oC84%Gujranwala
OPHQ00000KT6000mClear23oC1004hp80%Islamabad
OPJBD00000KTHaze28oC85%Joharabad
OPJG00000KT5000mHaze27oC1002hp73%Jhang
OPJI23004KT2000mHaze30oC1006hp85%Jiwani
OPJM00000KT3000mMist27oC84%Jhelum
OPKAD00000KT6000mClear29oC68%KOT ADDU
OPKC23006KT7000mClear28oC1004hp85%KARACHI A/P
OPKD21010KT6000mClear29oC1003hp81%Hyderabad
OPKE22502KT6000mClear31oC1002hp75%Chhor
OPKL05002KT6000mClear26oC70%Kotli
OPKP00000KT4000mHaze29oC85%Khanpur
OPKRL00000KT4000mHaze28oC67%KAROR (LAYYAH)
OPKS00000KT4000mHaze29oC68%Kasur
OPLA15003KT4000mPartly Cloudy29oC1004hp64%LAHORE A/P
OPMA00000KT6000mHaze27oC1005hp77%Mangla
OPMB00000KT6000mClear28oC1004hp85%MANDI BAHUDDIN
OPME36002KT6000mClear17oC56%Murree
OPMF00000KT7000mClear25oC62%MUZAFFARABAD
OPMJ00000KT6000mClear29oC1001hp71%MOHENJO DARO
OPMT00000KT4000mHaze31oC1002hp56%Multan
OPNH13006KT5000mHaze32oC1003hp58%Sh Benazirabad
OPNPT00000KT6000mClear32oC61%NOOR PUR THAL
OPOK00000KT4500mClear30oC1003hp65%Okara
OPPG31006KT6000mClear26oC1015hp27%Panjgur
OPPI23009KT3000mClear28oC1005hp92%Pasni
OPPS00000KT4000mHaze28oC1004hp51%Peshawar
OPQT13006KT7000mClear18oC1018hp21%Quetta
OPRK00000KT4000mHaze28oC1002hp67%R-Y-KHAN
OPRN05004KT6000mClear27oC64%CHAKLALA- RAWALPINDI
OPSD00000KT6000mClear13oC1017hp74%Skardu
OPSK00000KT4000mHaze31oC1002hpSukkur
OPSS00000KT4000mClear21oC66%SAIDU SHARIF
OPST05004KT4000mHaze28oC1004hp70%SIAL A/P SIALKOT
OPSW00000KT6000mClear29oC1002hp71%Sahiwal
OPTMG00000KT4000mClear25oC49%Tim Dir
OPTS00000KT5000mHaze28oC74%T.T. SINGH
OPTU00000KT5000mClear31oC1005hp28%Turbat